sensor_id;sensor_type;location;lat;lon;timestamp;P1;durP1;ratioP1;P2;durP2;ratioP2
26106;SDS011;13866;50.748;12.630;2023-07-22T00:00:17;10.37;;;5.90;;
26106;SDS011;13866;50.748;12.630;2023-07-22T00:02:42;6.80;;;4.80;;
26106;SDS011;13866;50.748;12.630;2023-07-22T00:05:08;9.67;;;6.20;;
26106;SDS011;13866;50.748;12.630;2023-07-22T00:07:35;6.90;;;4.60;;
26106;SDS011;13866;50.748;12.630;2023-07-22T00:10:01;7.40;;;4.70;;
26106;SDS011;13866;50.748;12.630;2023-07-22T00:12:27;5.70;;;5.40;;
26106;SDS011;13866;50.748;12.630;2023-07-22T00:14:52;6.57;;;6.17;;
26106;SDS011;13866;50.748;12.630;2023-07-22T00:17:20;12.33;;;5.10;;
26106;SDS011;13866;50.748;12.630;2023-07-22T00:19:46;7.00;;;6.40;;
26106;SDS011;13866;50.748;12.630;2023-07-22T00:22:13;5.07;;;4.87;;
26106;SDS011;13866;50.748;12.630;2023-07-22T00:24:40;9.43;;;6.20;;
26106;SDS011;13866;50.748;12.630;2023-07-22T00:27:05;6.17;;;5.87;;
26106;SDS011;13866;50.748;12.630;2023-07-22T00:29:33;7.50;;;5.60;;
26106;SDS011;13866;50.748;12.630;2023-07-22T00:31:59;7.37;;;5.23;;
26106;SDS011;13866;50.748;12.630;2023-07-22T00:34:25;7.80;;;5.40;;
26106;SDS011;13866;50.748;12.630;2023-07-22T00:36:51;5.77;;;5.13;;
26106;SDS011;13866;50.748;12.630;2023-07-22T00:39:16;5.83;;;4.93;;
26106;SDS011;13866;50.748;12.630;2023-07-22T00:41:42;6.10;;;5.53;;
26106;SDS011;13866;50.748;12.630;2023-07-22T00:44:09;5.40;;;5.13;;
26106;SDS011;13866;50.748;12.630;2023-07-22T00:46:36;9.30;;;5.87;;
26106;SDS011;13866;50.748;12.630;2023-07-22T00:49:02;5.40;;;5.10;;
26106;SDS011;13866;50.748;12.630;2023-07-22T00:51:27;6.40;;;5.80;;
26106;SDS011;13866;50.748;12.630;2023-07-22T00:53:53;6.30;;;5.47;;
26106;SDS011;13866;50.748;12.630;2023-07-22T00:56:19;7.90;;;5.13;;
26106;SDS011;13866;50.748;12.630;2023-07-22T00:58:44;16.13;;;5.40;;
26106;SDS011;13866;50.748;12.630;2023-07-22T01:01:10;5.83;;;5.50;;
26106;SDS011;13866;50.748;12.630;2023-07-22T01:03:36;6.20;;;5.80;;
26106;SDS011;13866;50.748;12.630;2023-07-22T01:06:01;16.60;;;5.37;;
26106;SDS011;13866;50.748;12.630;2023-07-22T01:08:27;7.33;;;5.27;;
26106;SDS011;13866;50.748;12.630;2023-07-22T01:10:53;5.77;;;5.33;;
26106;SDS011;13866;50.748;12.630;2023-07-22T01:13:19;5.23;;;5.03;;
26106;SDS011;13866;50.748;12.630;2023-07-22T01:15:45;7.50;;;5.47;;
26106;SDS011;13866;50.748;12.630;2023-07-22T01:18:10;8.60;;;5.43;;
26106;SDS011;13866;50.748;12.630;2023-07-22T01:20:36;9.93;;;5.40;;
26106;SDS011;13866;50.748;12.630;2023-07-22T01:23:02;7.43;;;5.57;;
26106;SDS011;13866;50.748;12.630;2023-07-22T01:25:28;6.20;;;5.60;;
26106;SDS011;13866;50.748;12.630;2023-07-22T01:27:54;17.30;;;5.80;;
26106;SDS011;13866;50.748;12.630;2023-07-22T01:30:20;10.23;;;5.53;;
26106;SDS011;13866;50.748;12.630;2023-07-22T01:32:48;7.13;;;6.13;;
26106;SDS011;13866;50.748;12.630;2023-07-22T01:35:15;7.40;;;5.43;;
26106;SDS011;13866;50.748;12.630;2023-07-22T01:37:41;16.87;;;5.13;;
26106;SDS011;13866;50.748;12.630;2023-07-22T01:40:07;5.43;;;5.03;;
26106;SDS011;13866;50.748;12.630;2023-07-22T01:42:42;5.93;;;5.70;;
26106;SDS011;13866;50.748;12.630;2023-07-22T01:45:08;9.03;;;4.90;;
26106;SDS011;13866;50.748;12.630;2023-07-22T01:47:35;14.33;;;5.10;;
26106;SDS011;13866;50.748;12.630;2023-07-22T01:50:02;5.90;;;5.50;;
26106;SDS011;13866;50.748;12.630;2023-07-22T01:52:28;5.50;;;5.30;;
26106;SDS011;13866;50.748;12.630;2023-07-22T01:54:53;6.23;;;5.83;;
26106;SDS011;13866;50.748;12.630;2023-07-22T01:57:19;5.83;;;5.30;;
26106;SDS011;13866;50.748;12.630;2023-07-22T01:59:44;13.33;;;4.90;;
26106;SDS011;13866;50.748;12.630;2023-07-22T02:02:10;5.90;;;4.80;;
26106;SDS011;13866;50.748;12.630;2023-07-22T02:04:35;8.50;;;5.73;;
26106;SDS011;13866;50.748;12.630;2023-07-22T02:07:01;5.60;;;5.13;;
26106;SDS011;13866;50.748;12.630;2023-07-22T02:09:26;5.17;;;4.77;;
26106;SDS011;13866;50.748;12.630;2023-07-22T02:11:52;6.53;;;5.00;;
26106;SDS011;13866;50.748;12.630;2023-07-22T02:14:18;5.33;;;4.73;;
26106;SDS011;13866;50.748;12.630;2023-07-22T02:16:44;10.20;;;5.20;;
26106;SDS011;13866;50.748;12.630;2023-07-22T02:19:09;7.00;;;5.20;;
26106;SDS011;13866;50.748;12.630;2023-07-22T02:21:35;11.97;;;5.50;;
26106;SDS011;13866;50.748;12.630;2023-07-22T02:24:00;8.90;;;5.70;;
26106;SDS011;13866;50.748;12.630;2023-07-22T02:26:26;6.30;;;5.80;;
26106;SDS011;13866;50.748;12.630;2023-07-22T02:28:51;6.27;;;5.80;;
26106;SDS011;13866;50.748;12.630;2023-07-22T02:31:17;14.60;;;5.93;;
26106;SDS011;13866;50.748;12.630;2023-07-22T02:33:43;10.53;;;5.47;;
26106;SDS011;13866;50.748;12.630;2023-07-22T02:36:08;8.53;;;7.17;;
26106;SDS011;13866;50.748;12.630;2023-07-22T02:38:34;5.87;;;5.43;;
26106;SDS011;13866;50.748;12.630;2023-07-22T02:41:02;11.53;;;4.90;;
26106;SDS011;13866;50.748;12.630;2023-07-22T02:43:30;6.00;;;5.53;;
26106;SDS011;13866;50.748;12.630;2023-07-22T02:45:56;7.47;;;6.07;;
26106;SDS011;13866;50.748;12.630;2023-07-22T02:48:22;7.37;;;6.53;;
26106;SDS011;13866;50.748;12.630;2023-07-22T02:50:47;7.33;;;6.10;;
26106;SDS011;13866;50.748;12.630;2023-07-22T02:53:13;9.30;;;5.70;;
26106;SDS011;13866;50.748;12.630;2023-07-22T02:55:39;6.53;;;4.87;;
26106;SDS011;13866;50.748;12.630;2023-07-22T02:58:04;6.07;;;5.87;;
26106;SDS011;13866;50.748;12.630;2023-07-22T03:00:30;8.03;;;5.80;;
26106;SDS011;13866;50.748;12.630;2023-07-22T03:02:56;6.30;;;6.03;;
26106;SDS011;13866;50.748;12.630;2023-07-22T03:05:25;6.17;;;5.77;;
26106;SDS011;13866;50.748;12.630;2023-07-22T03:07:53;5.97;;;5.43;;
26106;SDS011;13866;50.748;12.630;2023-07-22T03:10:19;8.23;;;5.33;;
26106;SDS011;13866;50.748;12.630;2023-07-22T03:12:44;6.83;;;6.30;;
26106;SDS011;13866;50.748;12.630;2023-07-22T03:15:10;5.80;;;5.30;;
26106;SDS011;13866;50.748;12.630;2023-07-22T03:17:37;8.47;;;6.00;;
26106;SDS011;13866;50.748;12.630;2023-07-22T03:20:04;18.33;;;5.73;;
26106;SDS011;13866;50.748;12.630;2023-07-22T03:22:34;8.53;;;5.77;;
26106;SDS011;13866;50.748;12.630;2023-07-22T03:24:59;15.17;;;5.43;;
26106;SDS011;13866;50.748;12.630;2023-07-22T03:27:25;5.70;;;5.20;;
26106;SDS011;13866;50.748;12.630;2023-07-22T03:29:50;6.17;;;5.63;;
26106;SDS011;13866;50.748;12.630;2023-07-22T03:32:16;7.30;;;6.57;;
26106;SDS011;13866;50.748;12.630;2023-07-22T03:34:41;20.20;;;6.50;;
26106;SDS011;13866;50.748;12.630;2023-07-22T03:37:07;7.60;;;7.07;;
26106;SDS011;13866;50.748;12.630;2023-07-22T03:39:32;12.47;;;6.43;;
26106;SDS011;13866;50.748;12.630;2023-07-22T03:41:57;9.70;;;5.67;;
26106;SDS011;13866;50.748;12.630;2023-07-22T03:44:23;7.00;;;6.40;;
26106;SDS011;13866;50.748;12.630;2023-07-22T03:46:49;6.37;;;6.00;;
26106;SDS011;13866;50.748;12.630;2023-07-22T03:49:14;8.77;;;6.80;;
26106;SDS011;13866;50.748;12.630;2023-07-22T03:51:40;5.33;;;5.00;;
26106;SDS011;13866;50.748;12.630;2023-07-22T03:54:05;6.67;;;6.33;;
26106;SDS011;13866;50.748;12.630;2023-07-22T03:56:31;10.13;;;7.20;;
26106;SDS011;13866;50.748;12.630;2023-07-22T03:58:56;9.13;;;7.13;;
26106;SDS011;13866;50.748;12.630;2023-07-22T04:01:22;13.20;;;6.10;;
26106;SDS011;13866;50.748;12.630;2023-07-22T04:03:47;6.97;;;6.07;;
26106;SDS011;13866;50.748;12.630;2023-07-22T04:06:13;5.97;;;5.73;;
26106;SDS011;13866;50.748;12.630;2023-07-22T04:08:38;8.20;;;7.10;;
26106;SDS011;13866;50.748;12.630;2023-07-22T04:11:04;15.70;;;6.70;;
26106;SDS011;13866;50.748;12.630;2023-07-22T04:13:29;6.43;;;6.03;;
26106;SDS011;13866;50.748;12.630;2023-07-22T04:15:55;7.93;;;7.17;;
26106;SDS011;13866;50.748;12.630;2023-07-22T04:18:20;7.67;;;7.07;;
26106;SDS011;13866;50.748;12.630;2023-07-22T04:20:46;7.57;;;6.43;;
26106;SDS011;13866;50.748;12.630;2023-07-22T04:23:15;17.13;;;6.60;;
26106;SDS011;13866;50.748;12.630;2023-07-22T04:25:41;18.20;;;8.20;;
26106;SDS011;13866;50.748;12.630;2023-07-22T04:28:08;6.80;;;5.90;;
26106;SDS011;13866;50.748;12.630;2023-07-22T04:30:34;11.03;;;7.37;;
26106;SDS011;13866;50.748;12.630;2023-07-22T04:33:00;10.50;;;6.93;;
26106;SDS011;13866;50.748;12.630;2023-07-22T04:35:25;6.70;;;6.40;;
26106;SDS011;13866;50.748;12.630;2023-07-22T04:37:51;7.00;;;6.40;;
26106;SDS011;13866;50.748;12.630;2023-07-22T04:40:16;6.50;;;6.23;;
26106;SDS011;13866;50.748;12.630;2023-07-22T04:42:43;7.33;;;6.67;;
26106;SDS011;13866;50.748;12.630;2023-07-22T04:45:10;7.30;;;6.90;;
26106;SDS011;13866;50.748;12.630;2023-07-22T04:47:36;15.20;;;6.70;;
26106;SDS011;13866;50.748;12.630;2023-07-22T04:50:03;8.63;;;7.00;;
26106;SDS011;13866;50.748;12.630;2023-07-22T04:52:32;7.50;;;6.70;;
26106;SDS011;13866;50.748;12.630;2023-07-22T04:54:57;6.97;;;6.40;;
26106;SDS011;13866;50.748;12.630;2023-07-22T04:57:23;9.33;;;6.97;;
26106;SDS011;13866;50.748;12.630;2023-07-22T04:59:48;7.33;;;6.80;;
26106;SDS011;13866;50.748;12.630;2023-07-22T05:02:14;8.53;;;7.77;;
26106;SDS011;13866;50.748;12.630;2023-07-22T05:04:39;7.80;;;7.20;;
26106;SDS011;13866;50.748;12.630;2023-07-22T05:07:05;7.00;;;6.63;;
26106;SDS011;13866;50.748;12.630;2023-07-22T05:09:30;10.80;;;6.90;;
26106;SDS011;13866;50.748;12.630;2023-07-22T05:11:56;7.53;;;6.80;;
26106;SDS011;13866;50.748;12.630;2023-07-22T05:14:21;7.73;;;7.40;;
26106;SDS011;13866;50.748;12.630;2023-07-22T05:16:47;6.80;;;6.27;;
26106;SDS011;13866;50.748;12.630;2023-07-22T05:19:12;7.10;;;6.87;;
26106;SDS011;13866;50.748;12.630;2023-07-22T05:21:38;7.47;;;7.00;;
26106;SDS011;13866;50.748;12.630;2023-07-22T05:24:03;7.10;;;6.57;;
26106;SDS011;13866;50.748;12.630;2023-07-22T05:26:29;12.90;;;7.87;;
26106;SDS011;13866;50.748;12.630;2023-07-22T05:28:55;9.97;;;7.03;;
26106;SDS011;13866;50.748;12.630;2023-07-22T05:31:21;7.03;;;6.73;;
26106;SDS011;13866;50.748;12.630;2023-07-22T05:33:46;9.50;;;7.10;;
26106;SDS011;13866;50.748;12.630;2023-07-22T05:36:12;8.03;;;7.33;;
26106;SDS011;13866;50.748;12.630;2023-07-22T05:38:37;6.50;;;6.20;;
26106;SDS011;13866;50.748;12.630;2023-07-22T05:41:03;7.93;;;7.10;;
26106;SDS011;13866;50.748;12.630;2023-07-22T05:43:28;6.87;;;6.30;;
26106;SDS011;13866;50.748;12.630;2023-07-22T05:45:54;8.50;;;6.90;;
26106;SDS011;13866;50.748;12.630;2023-07-22T05:48:19;8.70;;;6.80;;
26106;SDS011;13866;50.748;12.630;2023-07-22T05:50:46;10.00;;;6.83;;
26106;SDS011;13866;50.748;12.630;2023-07-22T05:53:12;12.10;;;8.03;;
26106;SDS011;13866;50.748;12.630;2023-07-22T05:55:38;7.00;;;6.60;;
26106;SDS011;13866;50.748;12.630;2023-07-22T05:58:04;7.77;;;7.23;;
26106;SDS011;13866;50.748;12.630;2023-07-22T06:00:33;8.60;;;7.60;;
26106;SDS011;13866;50.748;12.630;2023-07-22T06:02:59;10.03;;;7.47;;
26106;SDS011;13866;50.748;12.630;2023-07-22T06:05:24;7.87;;;7.13;;
26106;SDS011;13866;50.748;12.630;2023-07-22T06:07:50;13.17;;;7.30;;
26106;SDS011;13866;50.748;12.630;2023-07-22T06:10:16;7.63;;;7.03;;
26106;SDS011;13866;50.748;12.630;2023-07-22T06:12:41;7.80;;;7.20;;
26106;SDS011;13866;50.748;12.630;2023-07-22T06:15:07;8.17;;;7.60;;
26106;SDS011;13866;50.748;12.630;2023-07-22T06:17:33;12.13;;;7.70;;
26106;SDS011;13866;50.748;12.630;2023-07-22T06:19:59;9.53;;;8.10;;
26106;SDS011;13866;50.748;12.630;2023-07-22T06:22:24;8.40;;;7.83;;
26106;SDS011;13866;50.748;12.630;2023-07-22T06:24:50;8.33;;;7.83;;
26106;SDS011;13866;50.748;12.630;2023-07-22T06:27:15;7.40;;;7.00;;
26106;SDS011;13866;50.748;12.630;2023-07-22T06:29:41;7.77;;;7.27;;
26106;SDS011;13866;50.748;12.630;2023-07-22T06:32:06;7.90;;;7.53;;
26106;SDS011;13866;50.748;12.630;2023-07-22T06:34:32;14.63;;;9.03;;
26106;SDS011;13866;50.748;12.630;2023-07-22T06:36:58;9.03;;;8.10;;
26106;SDS011;13866;50.748;12.630;2023-07-22T06:39:23;9.10;;;8.50;;
26106;SDS011;13866;50.748;12.630;2023-07-22T06:41:48;10.23;;;8.70;;
26106;SDS011;13866;50.748;12.630;2023-07-22T06:44:14;9.00;;;8.07;;
26106;SDS011;13866;50.748;12.630;2023-07-22T06:46:40;8.10;;;7.60;;
26106;SDS011;13866;50.748;12.630;2023-07-22T06:49:06;9.93;;;9.07;;
26106;SDS011;13866;50.748;12.630;2023-07-22T06:51:31;9.40;;;8.10;;
26106;SDS011;13866;50.748;12.630;2023-07-22T06:53:57;8.50;;;8.00;;
26106;SDS011;13866;50.748;12.630;2023-07-22T06:56:22;9.27;;;8.70;;
26106;SDS011;13866;50.748;12.630;2023-07-22T06:58:48;11.23;;;8.03;;
26106;SDS011;13866;50.748;12.630;2023-07-22T07:01:13;9.03;;;8.43;;
26106;SDS011;13866;50.748;12.630;2023-07-22T07:03:39;9.40;;;8.80;;
26106;SDS011;13866;50.748;12.630;2023-07-22T07:06:04;10.73;;;9.57;;
26106;SDS011;13866;50.748;12.630;2023-07-22T07:08:30;9.27;;;8.70;;
26106;SDS011;13866;50.748;12.630;2023-07-22T07:10:55;9.03;;;8.43;;
26106;SDS011;13866;50.748;12.630;2023-07-22T07:13:21;10.17;;;8.73;;
26106;SDS011;13866;50.748;12.630;2023-07-22T07:15:47;9.70;;;9.00;;
26106;SDS011;13866;50.748;12.630;2023-07-22T07:18:16;9.80;;;9.20;;
26106;SDS011;13866;50.748;12.630;2023-07-22T07:20:42;8.70;;;8.07;;
26106;SDS011;13866;50.748;12.630;2023-07-22T07:23:08;10.30;;;9.50;;
26106;SDS011;13866;50.748;12.630;2023-07-22T07:25:34;10.97;;;9.97;;
26106;SDS011;13866;50.748;12.630;2023-07-22T07:27:59;10.87;;;7.50;;
26106;SDS011;13866;50.748;12.630;2023-07-22T07:30:25;10.33;;;9.37;;
26106;SDS011;13866;50.748;12.630;2023-07-22T07:32:50;13.17;;;9.90;;
26106;SDS011;13866;50.748;12.630;2023-07-22T07:35:16;10.30;;;9.40;;
26106;SDS011;13866;50.748;12.630;2023-07-22T07:37:41;9.70;;;9.00;;
26106;SDS011;13866;50.748;12.630;2023-07-22T07:40:07;9.10;;;8.20;;
26106;SDS011;13866;50.748;12.630;2023-07-22T07:42:33;9.47;;;8.57;;
26106;SDS011;13866;50.748;12.630;2023-07-22T07:44:58;8.83;;;7.87;;
26106;SDS011;13866;50.748;12.630;2023-07-22T07:47:24;10.53;;;8.93;;
26106;SDS011;13866;50.748;12.630;2023-07-22T07:49:50;9.77;;;9.17;;
26106;SDS011;13866;50.748;12.630;2023-07-22T07:52:15;8.00;;;7.50;;
26106;SDS011;13866;50.748;12.630;2023-07-22T07:54:40;7.60;;;7.30;;
26106;SDS011;13866;50.748;12.630;2023-07-22T07:57:06;9.13;;;8.33;;
26106;SDS011;13866;50.748;12.630;2023-07-22T07:59:31;15.47;;;8.40;;
26106;SDS011;13866;50.748;12.630;2023-07-22T08:01:57;7.33;;;7.03;;
26106;SDS011;13866;50.748;12.630;2023-07-22T08:04:22;6.90;;;6.30;;
26106;SDS011;13866;50.748;12.630;2023-07-22T08:06:48;7.20;;;6.90;;
26106;SDS011;13866;50.748;12.630;2023-07-22T08:09:14;8.20;;;7.37;;
26106;SDS011;13866;50.748;12.630;2023-07-22T08:11:43;6.90;;;6.50;;
26106;SDS011;13866;50.748;12.630;2023-07-22T08:14:09;6.30;;;6.10;;
26106;SDS011;13866;50.748;12.630;2023-07-22T08:16:35;4.97;;;4.87;;
26106;SDS011;13866;50.748;12.630;2023-07-22T08:19:00;5.03;;;4.90;;
26106;SDS011;13866;50.748;12.630;2023-07-22T08:21:26;5.40;;;5.10;;
26106;SDS011;13866;50.748;12.630;2023-07-22T08:23:51;12.63;;;5.27;;
26106;SDS011;13866;50.748;12.630;2023-07-22T08:26:17;5.83;;;5.53;;
26106;SDS011;13866;50.748;12.630;2023-07-22T08:28:46;7.50;;;4.63;;
26106;SDS011;13866;50.748;12.630;2023-07-22T08:31:11;4.83;;;4.50;;
26106;SDS011;13866;50.748;12.630;2023-07-22T08:33:37;4.70;;;4.43;;
26106;SDS011;13866;50.748;12.630;2023-07-22T08:36:02;5.70;;;5.03;;
26106;SDS011;13866;50.748;12.630;2023-07-22T08:38:28;3.97;;;3.63;;
26106;SDS011;13866;50.748;12.630;2023-07-22T08:40:54;3.30;;;3.20;;
26106;SDS011;13866;50.748;12.630;2023-07-22T08:43:20;4.53;;;4.13;;
26106;SDS011;13866;50.748;12.630;2023-07-22T08:45:47;5.70;;;5.23;;
26106;SDS011;13866;50.748;12.630;2023-07-22T08:48:15;3.73;;;3.43;;
26106;SDS011;13866;50.748;12.630;2023-07-22T08:50:51;3.67;;;3.57;;
26106;SDS011;13866;50.748;12.630;2023-07-22T08:53:19;2.70;;;2.70;;
26106;SDS011;13866;50.748;12.630;2023-07-22T08:55:45;4.67;;;4.47;;
26106;SDS011;13866;50.748;12.630;2023-07-22T08:58:13;4.93;;;4.70;;
26106;SDS011;13866;50.748;12.630;2023-07-22T09:00:39;4.67;;;4.47;;
26106;SDS011;13866;50.748;12.630;2023-07-22T09:03:05;5.63;;;4.37;;
26106;SDS011;13866;50.748;12.630;2023-07-22T09:05:32;4.00;;;3.90;;
26106;SDS011;13866;50.748;12.630;2023-07-22T09:07:58;7.10;;;4.10;;
26106;SDS011;13866;50.748;12.630;2023-07-22T09:10:27;2.93;;;2.93;;
26106;SDS011;13866;50.748;12.630;2023-07-22T09:12:53;3.83;;;3.73;;
26106;SDS011;13866;50.748;12.630;2023-07-22T09:15:19;3.43;;;3.43;;
26106;SDS011;13866;50.748;12.630;2023-07-22T09:17:46;3.70;;;3.50;;
26106;SDS011;13866;50.748;12.630;2023-07-22T09:20:12;4.10;;;3.80;;
26106;SDS011;13866;50.748;12.630;2023-07-22T09:22:42;9.43;;;4.23;;
26106;SDS011;13866;50.748;12.630;2023-07-22T09:25:16;3.23;;;3.13;;
26106;SDS011;13866;50.748;12.630;2023-07-22T09:27:43;3.80;;;3.60;;
26106;SDS011;13866;50.748;12.630;2023-07-22T09:30:23;3.90;;;3.63;;
26106;SDS011;13866;50.748;12.630;2023-07-22T09:32:49;4.30;;;4.00;;
26106;SDS011;13866;50.748;12.630;2023-07-22T09:35:16;4.13;;;3.90;;
26106;SDS011;13866;50.748;12.630;2023-07-22T09:37:42;3.27;;;3.07;;
26106;SDS011;13866;50.748;12.630;2023-07-22T09:40:29;3.37;;;3.27;;
26106;SDS011;13866;50.748;12.630;2023-07-22T09:42:54;3.70;;;3.60;;
26106;SDS011;13866;50.748;12.630;2023-07-22T09:45:23;2.97;;;2.73;;
26106;SDS011;13866;50.748;12.630;2023-07-22T09:47:50;2.63;;;2.60;;
26106;SDS011;13866;50.748;12.630;2023-07-22T09:50:20;3.30;;;3.20;;
26106;SDS011;13866;50.748;12.630;2023-07-22T09:52:50;3.30;;;3.20;;
26106;SDS011;13866;50.748;12.630;2023-07-22T09:55:18;3.90;;;3.50;;
26106;SDS011;13866;50.748;12.630;2023-07-22T09:57:52;3.73;;;3.63;;
26106;SDS011;13866;50.748;12.630;2023-07-22T10:00:19;2.80;;;2.80;;
26106;SDS011;13866;50.748;12.630;2023-07-22T10:02:49;3.00;;;2.90;;
26106;SDS011;13866;50.748;12.630;2023-07-22T10:05:16;3.07;;;3.07;;
26106;SDS011;13866;50.748;12.630;2023-07-22T10:07:44;3.23;;;3.20;;
26106;SDS011;13866;50.748;12.630;2023-07-22T10:10:16;3.33;;;3.23;;
26106;SDS011;13866;50.748;12.630;2023-07-22T10:12:43;2.70;;;2.70;;
26106;SDS011;13866;50.748;12.630;2023-07-22T10:15:10;3.40;;;2.90;;
26106;SDS011;13866;50.748;12.630;2023-07-22T10:17:37;2.53;;;2.53;;
26106;SDS011;13866;50.748;12.630;2023-07-22T10:20:07;2.73;;;2.63;;
26106;SDS011;13866;50.748;12.630;2023-07-22T10:22:40;3.07;;;2.53;;
26106;SDS011;13866;50.748;12.630;2023-07-22T10:25:10;3.07;;;3.07;;
26106;SDS011;13866;50.748;12.630;2023-07-22T10:27:37;2.53;;;2.53;;
26106;SDS011;13866;50.748;12.630;2023-07-22T10:30:05;2.80;;;2.80;;
26106;SDS011;13866;50.748;12.630;2023-07-22T10:32:41;3.07;;;2.97;;
26106;SDS011;13866;50.748;12.630;2023-07-22T10:35:09;3.30;;;2.73;;
26106;SDS011;13866;50.748;12.630;2023-07-22T10:37:37;2.63;;;2.63;;
26106;SDS011;13866;50.748;12.630;2023-07-22T10:43:03;3.00;;;2.90;;
26106;SDS011;13866;50.748;12.630;2023-07-22T10:45:30;3.33;;;3.27;;
26106;SDS011;13866;50.748;12.630;2023-07-22T10:48:15;2.47;;;2.47;;
26106;SDS011;13866;50.748;12.630;2023-07-22T10:50:50;2.93;;;2.93;;
26106;SDS011;13866;50.748;12.630;2023-07-22T10:53:27;3.30;;;3.30;;
26106;SDS011;13866;50.748;12.630;2023-07-22T11:01:23;3.00;;;2.90;;
26106;SDS011;13866;50.748;12.630;2023-07-22T11:04:07;8.33;;;3.40;;
26106;SDS011;13866;50.748;12.630;2023-07-22T11:06:37;3.27;;;3.00;;
26106;SDS011;13866;50.748;12.630;2023-07-22T11:09:04;2.90;;;2.90;;
26106;SDS011;13866;50.748;12.630;2023-07-22T11:11:37;2.70;;;2.67;;
26106;SDS011;13866;50.748;12.630;2023-07-22T11:14:14;2.80;;;2.80;;
26106;SDS011;13866;50.748;12.630;2023-07-22T11:16:44;3.17;;;3.07;;
26106;SDS011;13866;50.748;12.630;2023-07-22T11:19:12;2.93;;;2.90;;
26106;SDS011;13866;50.748;12.630;2023-07-22T11:21:38;4.00;;;3.80;;
26106;SDS011;13866;50.748;12.630;2023-07-22T11:24:04;4.43;;;4.20;;
26106;SDS011;13866;50.748;12.630;2023-07-22T11:26:32;5.23;;;3.43;;
26106;SDS011;13866;50.748;12.630;2023-07-22T11:28:57;3.60;;;3.50;;
26106;SDS011;13866;50.748;12.630;2023-07-22T11:31:31;3.47;;;3.37;;
26106;SDS011;13866;50.748;12.630;2023-07-22T11:33:57;3.10;;;2.90;;
26106;SDS011;13866;50.748;12.630;2023-07-22T11:36:23;3.63;;;3.33;;
26106;SDS011;13866;50.748;12.630;2023-07-22T11:38:49;3.10;;;3.10;;
26106;SDS011;13866;50.748;12.630;2023-07-22T11:41:15;3.43;;;3.13;;
26106;SDS011;13866;50.748;12.630;2023-07-22T11:43:41;2.80;;;2.80;;
26106;SDS011;13866;50.748;12.630;2023-07-22T11:46:07;3.03;;;3.00;;
26106;SDS011;13866;50.748;12.630;2023-07-22T11:48:33;3.10;;;3.10;;
26106;SDS011;13866;50.748;12.630;2023-07-22T11:50:59;3.17;;;3.07;;
26106;SDS011;13866;50.748;12.630;2023-07-22T11:53:27;2.93;;;2.93;;
26106;SDS011;13866;50.748;12.630;2023-07-22T11:55:57;3.27;;;3.17;;
26106;SDS011;13866;50.748;12.630;2023-07-22T11:58:24;3.20;;;3.10;;
26106;SDS011;13866;50.748;12.630;2023-07-22T12:01:07;2.43;;;2.40;;
26106;SDS011;13866;50.748;12.630;2023-07-22T12:03:35;3.30;;;3.20;;
26106;SDS011;13866;50.748;12.630;2023-07-22T12:06:02;5.50;;;3.27;;
26106;SDS011;13866;50.748;12.630;2023-07-22T12:08:28;3.13;;;3.13;;
26106;SDS011;13866;50.748;12.630;2023-07-22T12:11:00;3.20;;;2.90;;
26106;SDS011;13866;50.748;12.630;2023-07-22T12:13:25;2.83;;;2.73;;
26106;SDS011;13866;50.748;12.630;2023-07-22T12:16:00;3.53;;;3.43;;
26106;SDS011;13866;50.748;12.630;2023-07-22T12:18:45;2.50;;;2.50;;
26106;SDS011;13866;50.748;12.630;2023-07-22T12:21:12;3.20;;;3.10;;
26106;SDS011;13866;50.748;12.630;2023-07-22T12:23:38;3.27;;;3.20;;
26106;SDS011;13866;50.748;12.630;2023-07-22T12:26:04;4.07;;;3.00;;
26106;SDS011;13866;50.748;12.630;2023-07-22T12:28:30;8.43;;;2.77;;
26106;SDS011;13866;50.748;12.630;2023-07-22T12:30:56;3.60;;;3.40;;
26106;SDS011;13866;50.748;12.630;2023-07-22T12:33:24;2.63;;;2.63;;
26106;SDS011;13866;50.748;12.630;2023-07-22T12:35:50;2.90;;;2.80;;
26106;SDS011;13866;50.748;12.630;2023-07-22T12:38:17;3.37;;;2.43;;
26106;SDS011;13866;50.748;12.630;2023-07-22T12:40:43;3.17;;;3.00;;
26106;SDS011;13866;50.748;12.630;2023-07-22T12:43:08;3.27;;;3.17;;
26106;SDS011;13866;50.748;12.630;2023-07-22T12:45:34;3.03;;;2.93;;
26106;SDS011;13866;50.748;12.630;2023-07-22T12:47:59;2.50;;;2.40;;
26106;SDS011;13866;50.748;12.630;2023-07-22T12:50:25;2.93;;;2.83;;
26106;SDS011;13866;50.748;12.630;2023-07-22T12:52:51;3.20;;;3.00;;
26106;SDS011;13866;50.748;12.630;2023-07-22T12:55:16;2.97;;;2.90;;
26106;SDS011;13866;50.748;12.630;2023-07-22T12:57:41;3.83;;;3.53;;
26106;SDS011;13866;50.748;12.630;2023-07-22T13:00:07;2.33;;;2.33;;
26106;SDS011;13866;50.748;12.630;2023-07-22T13:02:36;3.10;;;3.10;;
26106;SDS011;13866;50.748;12.630;2023-07-22T13:05:02;2.60;;;2.50;;
26106;SDS011;13866;50.748;12.630;2023-07-22T13:07:28;2.87;;;2.87;;
26106;SDS011;13866;50.748;12.630;2023-07-22T13:09:54;4.00;;;3.30;;
26106;SDS011;13866;50.748;12.630;2023-07-22T13:12:21;3.50;;;3.30;;
26106;SDS011;13866;50.748;12.630;2023-07-22T13:14:47;3.57;;;3.37;;
26106;SDS011;13866;50.748;12.630;2023-07-22T13:17:12;8.73;;;3.20;;
26106;SDS011;13866;50.748;12.630;2023-07-22T13:19:38;4.20;;;2.60;;
26106;SDS011;13866;50.748;12.630;2023-07-22T13:22:04;3.47;;;3.03;;
26106;SDS011;13866;50.748;12.630;2023-07-22T13:24:29;6.73;;;2.80;;
26106;SDS011;13866;50.748;12.630;2023-07-22T13:26:55;3.00;;;3.00;;
26106;SDS011;13866;50.748;12.630;2023-07-22T13:29:20;3.00;;;2.90;;
26106;SDS011;13866;50.748;12.630;2023-07-22T13:31:46;3.10;;;2.80;;
26106;SDS011;13866;50.748;12.630;2023-07-22T13:34:11;3.50;;;3.40;;
26106;SDS011;13866;50.748;12.630;2023-07-22T13:36:37;3.60;;;3.50;;
26106;SDS011;13866;50.748;12.630;2023-07-22T13:39:02;3.60;;;3.40;;
26106;SDS011;13866;50.748;12.630;2023-07-22T13:41:28;3.30;;;3.20;;
26106;SDS011;13866;50.748;12.630;2023-07-22T13:43:53;3.67;;;3.50;;
26106;SDS011;13866;50.748;12.630;2023-07-22T13:46:19;3.40;;;3.33;;
26106;SDS011;13866;50.748;12.630;2023-07-22T13:48:45;4.30;;;3.83;;
26106;SDS011;13866;50.748;12.630;2023-07-22T13:51:10;3.83;;;3.83;;
26106;SDS011;13866;50.748;12.630;2023-07-22T13:53:35;3.40;;;3.30;;
26106;SDS011;13866;50.748;12.630;2023-07-22T13:56:01;3.33;;;3.23;;
26106;SDS011;13866;50.748;12.630;2023-07-22T13:58:27;7.30;;;3.40;;
26106;SDS011;13866;50.748;12.630;2023-07-22T14:00:53;3.70;;;3.60;;
26106;SDS011;13866;50.748;12.630;2023-07-22T14:03:18;3.60;;;3.50;;
26106;SDS011;13866;50.748;12.630;2023-07-22T14:05:44;3.67;;;3.60;;
26106;SDS011;13866;50.748;12.630;2023-07-22T14:08:09;5.53;;;4.10;;
26106;SDS011;13866;50.748;12.630;2023-07-22T14:10:35;11.87;;;3.80;;
26106;SDS011;13866;50.748;12.630;2023-07-22T14:13:00;3.87;;;3.77;;
26106;SDS011;13866;50.748;12.630;2023-07-22T14:15:26;4.97;;;4.60;;
26106;SDS011;13866;50.748;12.630;2023-07-22T14:17:51;3.97;;;3.77;;
26106;SDS011;13866;50.748;12.630;2023-07-22T14:20:17;5.70;;;3.63;;
26106;SDS011;13866;50.748;12.630;2023-07-22T14:22:42;4.50;;;4.40;;
26106;SDS011;13866;50.748;12.630;2023-07-22T14:25:08;4.90;;;3.63;;
26106;SDS011;13866;50.748;12.630;2023-07-22T14:27:34;4.20;;;4.10;;
26106;SDS011;13866;50.748;12.630;2023-07-22T14:30:00;3.70;;;3.60;;
26106;SDS011;13866;50.748;12.630;2023-07-22T14:32:26;4.67;;;4.37;;
26106;SDS011;13866;50.748;12.630;2023-07-22T14:34:51;6.23;;;3.33;;
26106;SDS011;13866;50.748;12.630;2023-07-22T14:37:17;4.23;;;3.90;;